EDDE/ERF METAR and TAF weather

Enter ICAO airport designator
Station Type Date Time Source
EDDE METAR 2022/12/04 05:20 UTC NOAA

EDDE 040520Z AUTO 07004KT 040V100 0250 0200 R27/0250N FZFG VV002 M01/M01 Q1017 NOSIG


Station Type Date Time Source
EDDE Decoded METAR 2022/12/04 05:20 UTC NOAA

Erfurt-Bindersleben, Germany (EDDE) 50-59N 010-58E 322M
Dec 04, 2022 - 12:20 AM EST / 2022.12.04 0520 UTC
Wind: from the ENE (070 degrees) at 5 MPH (4 KT) (direction variable):0
Visibility: less than 1 mile:0
Sky conditions: obscured
Weather: freezing fog
Temperature: 30 F (-1 C)
Windchill: 24 F (-4 C):1
Dew Point: 30 F (-1 C)
Relative Humidity: 100%
Pressure (altimeter): 30.03 in. Hg (1017 hPa)
ob: EDDE 040520Z AUTO 07004KT 040V100 0250 0200 R27/0250N FZFG VV002 M01/M01 Q1017 NOSIG
cycle: 5

Station Type Date Time Source
EDDE TAF 2022/12/04 06:27 UTC NOAA

TAF TAF EDDE 040500Z 0406/0506 06005KT 0200 FZFG OVC001 PROB30
TEMPO 0406/0503 1200 -FZDZ OVC003 PROB40
TEMPO 0503/0506 1200 -SNRA OVC003

Example: see airport list